sensor_id;sensor_type;location;lat;lon;timestamp;temperature;humidity
18974;DHT22;9621;48.690;9.466;2022-07-04T00:00:29;15.80;92.60
18974;DHT22;9621;48.690;9.466;2022-07-04T00:02:56;15.90;92.80
18974;DHT22;9621;48.690;9.466;2022-07-04T00:05:23;15.90;93.00
18974;DHT22;9621;48.690;9.466;2022-07-04T00:07:50;15.90;93.00
18974;DHT22;9621;48.690;9.466;2022-07-04T00:10:19;16.00;93.10
18974;DHT22;9621;48.690;9.466;2022-07-04T00:12:47;16.00;93.60
18974;DHT22;9621;48.690;9.466;2022-07-04T00:15:14;16.00;93.60
18974;DHT22;9621;48.690;9.466;2022-07-04T00:17:41;15.90;93.90
18974;DHT22;9621;48.690;9.466;2022-07-04T00:20:09;15.90;94.20
18974;DHT22;9621;48.690;9.466;2022-07-04T00:22:37;15.80;94.30
18974;DHT22;9621;48.690;9.466;2022-07-04T00:25:04;15.80;94.40
18974;DHT22;9621;48.690;9.466;2022-07-04T00:27:33;15.70;94.40
18974;DHT22;9621;48.690;9.466;2022-07-04T00:30:00;15.70;94.70
18974;DHT22;9621;48.690;9.466;2022-07-04T00:32:27;15.70;94.80
18974;DHT22;9621;48.690;9.466;2022-07-04T00:34:54;15.70;94.90
18974;DHT22;9621;48.690;9.466;2022-07-04T00:37:21;15.70;95.30
18974;DHT22;9621;48.690;9.466;2022-07-04T00:39:48;15.70;95.60
18974;DHT22;9621;48.690;9.466;2022-07-04T00:42:15;15.60;95.70
18974;DHT22;9621;48.690;9.466;2022-07-04T00:44:43;15.60;95.90
18974;DHT22;9621;48.690;9.466;2022-07-04T00:47:10;15.50;96.40
18974;DHT22;9621;48.690;9.466;2022-07-04T00:49:37;15.40;96.30
18974;DHT22;9621;48.690;9.466;2022-07-04T00:52:08;15.40;96.60
18974;DHT22;9621;48.690;9.466;2022-07-04T00:54:35;15.40;97.40
18974;DHT22;9621;48.690;9.466;2022-07-04T00:57:02;15.30;97.30
18974;DHT22;9621;48.690;9.466;2022-07-04T00:59:30;15.30;97.60
18974;DHT22;9621;48.690;9.466;2022-07-04T01:01:58;15.30;98.10
18974;DHT22;9621;48.690;9.466;2022-07-04T01:04:25;15.20;98.50
18974;DHT22;9621;48.690;9.466;2022-07-04T01:06:52;15.20;98.40
18974;DHT22;9621;48.690;9.466;2022-07-04T01:09:20;15.10;98.70
18974;DHT22;9621;48.690;9.466;2022-07-04T01:11:49;15.20;98.90
18974;DHT22;9621;48.690;9.466;2022-07-04T01:14:16;15.10;99.40
18974;DHT22;9621;48.690;9.466;2022-07-04T01:16:43;15.20;99.30
18974;DHT22;9621;48.690;9.466;2022-07-04T01:19:11;15.20;99.40
18974;DHT22;9621;48.690;9.466;2022-07-04T01:21:39;15.20;99.70
18974;DHT22;9621;48.690;9.466;2022-07-04T01:24:07;15.20;99.80
18974;DHT22;9621;48.690;9.466;2022-07-04T01:26:36;15.20;99.70
18974;DHT22;9621;48.690;9.466;2022-07-04T01:29:03;15.10;99.80
18974;DHT22;9621;48.690;9.466;2022-07-04T01:31:30;15.10;99.90
18974;DHT22;9621;48.690;9.466;2022-07-04T01:33:57;15.10;99.90
18974;DHT22;9621;48.690;9.466;2022-07-04T01:36:24;15.10;99.90
18974;DHT22;9621;48.690;9.466;2022-07-04T01:38:52;15.10;99.90
18974;DHT22;9621;48.690;9.466;2022-07-04T01:41:20;15.10;99.90
18974;DHT22;9621;48.690;9.466;2022-07-04T01:43:46;15.10;99.90
18974;DHT22;9621;48.690;9.466;2022-07-04T01:46:13;15.10;99.90
18974;DHT22;9621;48.690;9.466;2022-07-04T01:48:40;15.10;99.90
18974;DHT22;9621;48.690;9.466;2022-07-04T01:51:07;15.10;99.90
18974;DHT22;9621;48.690;9.466;2022-07-04T01:53:36;15.10;99.90
18974;DHT22;9621;48.690;9.466;2022-07-04T01:56:05;15.10;99.90
18974;DHT22;9621;48.690;9.466;2022-07-04T01:58:32;15.00;99.90
18974;DHT22;9621;48.690;9.466;2022-07-04T02:00:59;15.00;99.90
18974;DHT22;9621;48.690;9.466;2022-07-04T02:03:43;15.00;99.90
18974;DHT22;9621;48.690;9.466;2022-07-04T02:06:11;15.10;99.90
18974;DHT22;9621;48.690;9.466;2022-07-04T02:08:38;15.10;99.90
18974;DHT22;9621;48.690;9.466;2022-07-04T02:11:32;15.10;99.90
18974;DHT22;9621;48.690;9.466;2022-07-04T02:14:19;15.10;99.90
18974;DHT22;9621;48.690;9.466;2022-07-04T02:16:45;15.10;99.90
18974;DHT22;9621;48.690;9.466;2022-07-04T02:19:12;15.10;99.90
18974;DHT22;9621;48.690;9.466;2022-07-04T02:21:39;15.10;99.90
18974;DHT22;9621;48.690;9.466;2022-07-04T02:24:06;15.10;99.90
18974;DHT22;9621;48.690;9.466;2022-07-04T02:26:35;15.20;99.90
18974;DHT22;9621;48.690;9.466;2022-07-04T02:29:02;15.20;99.90
18974;DHT22;9621;48.690;9.466;2022-07-04T02:31:29;15.20;99.90
18974;DHT22;9621;48.690;9.466;2022-07-04T02:33:56;15.20;99.90
18974;DHT22;9621;48.690;9.466;2022-07-04T02:36:23;15.30;99.90
18974;DHT22;9621;48.690;9.466;2022-07-04T02:38:50;15.30;99.90
18974;DHT22;9621;48.690;9.466;2022-07-04T02:41:16;15.40;99.90
18974;DHT22;9621;48.690;9.466;2022-07-04T02:43:45;15.40;99.90
18974;DHT22;9621;48.690;9.466;2022-07-04T02:46:12;15.40;99.90
18974;DHT22;9621;48.690;9.466;2022-07-04T02:48:39;15.50;99.90
18974;DHT22;9621;48.690;9.466;2022-07-04T02:51:06;15.40;99.90
18974;DHT22;9621;48.690;9.466;2022-07-04T02:53:33;15.40;99.90
18974;DHT22;9621;48.690;9.466;2022-07-04T02:56:00;15.40;99.90
18974;DHT22;9621;48.690;9.466;2022-07-04T02:58:29;15.30;99.90
18974;DHT22;9621;48.690;9.466;2022-07-04T03:00:58;15.40;99.90
18974;DHT22;9621;48.690;9.466;2022-07-04T03:03:25;15.40;99.90
18974;DHT22;9621;48.690;9.466;2022-07-04T03:05:52;15.40;99.90
18974;DHT22;9621;48.690;9.466;2022-07-04T03:08:19;15.40;99.90
18974;DHT22;9621;48.690;9.466;2022-07-04T03:10:48;15.50;99.90
18974;DHT22;9621;48.690;9.466;2022-07-04T03:13:15;15.40;99.90
18974;DHT22;9621;48.690;9.466;2022-07-04T03:15:42;15.40;99.90
18974;DHT22;9621;48.690;9.466;2022-07-04T03:18:11;15.40;99.90
18974;DHT22;9621;48.690;9.466;2022-07-04T03:20:38;15.50;99.90
18974;DHT22;9621;48.690;9.466;2022-07-04T03:23:05;15.40;99.90
18974;DHT22;9621;48.690;9.466;2022-07-04T03:25:32;15.40;99.90
18974;DHT22;9621;48.690;9.466;2022-07-04T03:27:59;15.40;99.90
18974;DHT22;9621;48.690;9.466;2022-07-04T03:30:26;15.40;99.90
18974;DHT22;9621;48.690;9.466;2022-07-04T03:32:53;15.50;99.90
18974;DHT22;9621;48.690;9.466;2022-07-04T03:35:22;15.50;99.90
18974;DHT22;9621;48.690;9.466;2022-07-04T03:37:49;15.50;99.90
18974;DHT22;9621;48.690;9.466;2022-07-04T03:40:17;15.50;99.90
18974;DHT22;9621;48.690;9.466;2022-07-04T03:42:44;15.50;99.90
18974;DHT22;9621;48.690;9.466;2022-07-04T03:45:12;15.50;99.90
18974;DHT22;9621;48.690;9.466;2022-07-04T03:47:39;15.40;99.90
18974;DHT22;9621;48.690;9.466;2022-07-04T03:50:07;15.50;99.90
18974;DHT22;9621;48.690;9.466;2022-07-04T03:52:36;15.50;99.90
18974;DHT22;9621;48.690;9.466;2022-07-04T03:55:03;15.40;99.90
18974;DHT22;9621;48.690;9.466;2022-07-04T03:57:30;15.50;99.90
18974;DHT22;9621;48.690;9.466;2022-07-04T03:59:57;15.50;99.90
18974;DHT22;9621;48.690;9.466;2022-07-04T04:02:24;15.50;99.90
18974;DHT22;9621;48.690;9.466;2022-07-04T04:04:51;15.50;99.90
18974;DHT22;9621;48.690;9.466;2022-07-04T04:07:37;15.50;99.90
18974;DHT22;9621;48.690;9.466;2022-07-04T04:10:05;15.60;99.90
18974;DHT22;9621;48.690;9.466;2022-07-04T04:12:32;15.60;99.90
18974;DHT22;9621;48.690;9.466;2022-07-04T04:14:59;15.70;99.90
18974;DHT22;9621;48.690;9.466;2022-07-04T04:17:26;15.70;99.90
18974;DHT22;9621;48.690;9.466;2022-07-04T04:19:53;15.80;99.90
18974;DHT22;9621;48.690;9.466;2022-07-04T04:22:20;15.80;99.90
18974;DHT22;9621;48.690;9.466;2022-07-04T04:24:49;15.70;99.90
18974;DHT22;9621;48.690;9.466;2022-07-04T04:27:16;15.80;99.90
18974;DHT22;9621;48.690;9.466;2022-07-04T04:29:43;15.90;99.90
18974;DHT22;9621;48.690;9.466;2022-07-04T04:32:10;15.90;99.90
18974;DHT22;9621;48.690;9.466;2022-07-04T04:34:37;15.90;99.90
18974;DHT22;9621;48.690;9.466;2022-07-04T04:37:04;15.90;99.90
18974;DHT22;9621;48.690;9.466;2022-07-04T04:39:30;15.90;99.90
18974;DHT22;9621;48.690;9.466;2022-07-04T04:41:59;16.00;99.90
18974;DHT22;9621;48.690;9.466;2022-07-04T04:44:26;16.00;99.90
18974;DHT22;9621;48.690;9.466;2022-07-04T04:46:53;16.10;99.90
18974;DHT22;9621;48.690;9.466;2022-07-04T04:49:20;16.10;99.90
18974;DHT22;9621;48.690;9.466;2022-07-04T04:51:47;16.10;99.90
18974;DHT22;9621;48.690;9.466;2022-07-04T04:54:14;16.10;99.90
18974;DHT22;9621;48.690;9.466;2022-07-04T04:56:41;16.20;99.90
18974;DHT22;9621;48.690;9.466;2022-07-04T04:59:09;16.30;99.90
18974;DHT22;9621;48.690;9.466;2022-07-04T05:01:36;16.30;99.90
18974;DHT22;9621;48.690;9.466;2022-07-04T05:04:03;16.40;99.90
18974;DHT22;9621;48.690;9.466;2022-07-04T05:06:30;16.50;99.90
18974;DHT22;9621;48.690;9.466;2022-07-04T05:08:57;16.60;99.90
18974;DHT22;9621;48.690;9.466;2022-07-04T05:11:24;16.80;99.90
18974;DHT22;9621;48.690;9.466;2022-07-04T05:13:52;16.80;99.90
18974;DHT22;9621;48.690;9.466;2022-07-04T05:16:20;16.90;99.90
18974;DHT22;9621;48.690;9.466;2022-07-04T05:18:47;17.10;99.90
18974;DHT22;9621;48.690;9.466;2022-07-04T05:21:14;17.20;99.90
18974;DHT22;9621;48.690;9.466;2022-07-04T05:23:41;17.30;99.90
18974;DHT22;9621;48.690;9.466;2022-07-04T05:26:08;17.50;99.90
18974;DHT22;9621;48.690;9.466;2022-07-04T05:28:35;17.70;99.90
18974;DHT22;9621;48.690;9.466;2022-07-04T05:31:02;17.70;99.90
18974;DHT22;9621;48.690;9.466;2022-07-04T05:33:30;17.90;99.90
18974;DHT22;9621;48.690;9.466;2022-07-04T05:35:57;18.10;99.90
18974;DHT22;9621;48.690;9.466;2022-07-04T05:38:25;18.10;99.90
18974;DHT22;9621;48.690;9.466;2022-07-04T05:40:51;18.30;99.90
18974;DHT22;9621;48.690;9.466;2022-07-04T05:43:18;18.40;99.50
18974;DHT22;9621;48.690;9.466;2022-07-04T05:45:47;18.40;99.30
18974;DHT22;9621;48.690;9.466;2022-07-04T05:48:14;18.50;99.30
18974;DHT22;9621;48.690;9.466;2022-07-04T05:50:43;18.60;99.00
18974;DHT22;9621;48.690;9.466;2022-07-04T05:53:10;18.70;98.80
18974;DHT22;9621;48.690;9.466;2022-07-04T05:55:37;18.70;98.80
18974;DHT22;9621;48.690;9.466;2022-07-04T05:58:04;18.90;98.60
18974;DHT22;9621;48.690;9.466;2022-07-04T06:00:31;19.00;98.30
18974;DHT22;9621;48.690;9.466;2022-07-04T06:02:58;19.20;97.80
18974;DHT22;9621;48.690;9.466;2022-07-04T06:05:25;19.40;97.20
18974;DHT22;9621;48.690;9.466;2022-07-04T06:07:54;19.60;96.50
18974;DHT22;9621;48.690;9.466;2022-07-04T06:10:23;19.80;96.10
18974;DHT22;9621;48.690;9.466;2022-07-04T06:12:50;20.00;95.80
18974;DHT22;9621;48.690;9.466;2022-07-04T06:15:18;20.20;95.60
18974;DHT22;9621;48.690;9.466;2022-07-04T06:17:45;20.40;95.50
18974;DHT22;9621;48.690;9.466;2022-07-04T06:20:12;20.70;94.70
18974;DHT22;9621;48.690;9.466;2022-07-04T06:22:41;20.90;94.20
18974;DHT22;9621;48.690;9.466;2022-07-04T06:25:11;21.10;93.70
18974;DHT22;9621;48.690;9.466;2022-07-04T06:27:39;21.30;93.00
18974;DHT22;9621;48.690;9.466;2022-07-04T06:30:07;21.50;93.10
18974;DHT22;9621;48.690;9.466;2022-07-04T06:32:42;21.60;92.50
18974;DHT22;9621;48.690;9.466;2022-07-04T06:35:10;21.70;91.50
18974;DHT22;9621;48.690;9.466;2022-07-04T06:37:54;21.80;92.10
18974;DHT22;9621;48.690;9.466;2022-07-04T06:40:23;21.90;91.40
18974;DHT22;9621;48.690;9.466;2022-07-04T06:42:50;22.00;91.20
18974;DHT22;9621;48.690;9.466;2022-07-04T06:45:17;22.00;91.10
18974;DHT22;9621;48.690;9.466;2022-07-04T06:47:44;22.20;90.80
18974;DHT22;9621;48.690;9.466;2022-07-04T06:50:12;22.30;90.30
18974;DHT22;9621;48.690;9.466;2022-07-04T06:52:39;22.50;90.00
18974;DHT22;9621;48.690;9.466;2022-07-04T06:55:07;22.60;89.30
18974;DHT22;9621;48.690;9.466;2022-07-04T06:57:36;22.70;88.70
18974;DHT22;9621;48.690;9.466;2022-07-04T07:00:07;22.80;87.70
18974;DHT22;9621;48.690;9.466;2022-07-04T07:02:35;23.00;87.20
18974;DHT22;9621;48.690;9.466;2022-07-04T07:05:02;22.90;86.40
18974;DHT22;9621;48.690;9.466;2022-07-04T07:07:30;22.90;86.20
18974;DHT22;9621;48.690;9.466;2022-07-04T07:09:57;22.80;85.50
18974;DHT22;9621;48.690;9.466;2022-07-04T07:12:23;22.80;85.80
18974;DHT22;9621;48.690;9.466;2022-07-04T07:14:52;22.90;85.60
18974;DHT22;9621;48.690;9.466;2022-07-04T07:17:20;23.00;84.70
18974;DHT22;9621;48.690;9.466;2022-07-04T07:19:47;23.00;85.10
18974;DHT22;9621;48.690;9.466;2022-07-04T07:22:14;23.10;84.80
18974;DHT22;9621;48.690;9.466;2022-07-04T07:24:42;23.20;84.20
18974;DHT22;9621;48.690;9.466;2022-07-04T07:27:09;23.20;84.00
18974;DHT22;9621;48.690;9.466;2022-07-04T07:29:37;23.30;83.00
18974;DHT22;9621;48.690;9.466;2022-07-04T07:32:06;23.30;83.20
18974;DHT22;9621;48.690;9.466;2022-07-04T07:34:34;23.60;82.90
18974;DHT22;9621;48.690;9.466;2022-07-04T07:37:01;23.80;81.70
18974;DHT22;9621;48.690;9.466;2022-07-04T07:39:28;24.10;80.60
18974;DHT22;9621;48.690;9.466;2022-07-04T07:41:55;24.20;79.30
18974;DHT22;9621;48.690;9.466;2022-07-04T07:44:22;24.20;78.30
18974;DHT22;9621;48.690;9.466;2022-07-04T07:46:49;24.20;78.10
18974;DHT22;9621;48.690;9.466;2022-07-04T07:49:18;24.10;77.10
18974;DHT22;9621;48.690;9.466;2022-07-04T07:51:45;23.90;76.50
18974;DHT22;9621;48.690;9.466;2022-07-04T07:54:12;23.80;76.90
18974;DHT22;9621;48.690;9.466;2022-07-04T07:56:39;23.80;76.90
18974;DHT22;9621;48.690;9.466;2022-07-04T07:59:06;23.70;76.80
18974;DHT22;9621;48.690;9.466;2022-07-04T08:01:33;23.70;76.90
18974;DHT22;9621;48.690;9.466;2022-07-04T08:04:00;23.70;77.40
18974;DHT22;9621;48.690;9.466;2022-07-04T08:06:46;23.80;77.60
18974;DHT22;9621;48.690;9.466;2022-07-04T08:09:14;23.90;76.40
18974;DHT22;9621;48.690;9.466;2022-07-04T08:11:41;24.00;76.50
18974;DHT22;9621;48.690;9.466;2022-07-04T08:14:09;24.10;75.60
18974;DHT22;9621;48.690;9.466;2022-07-04T08:16:36;24.10;76.90
18974;DHT22;9621;48.690;9.466;2022-07-04T08:19:03;24.20;76.10
18974;DHT22;9621;48.690;9.466;2022-07-04T08:21:30;24.20;75.90
18974;DHT22;9621;48.690;9.466;2022-07-04T08:23:59;24.30;75.60
18974;DHT22;9621;48.690;9.466;2022-07-04T08:26:26;24.30;74.90
18974;DHT22;9621;48.690;9.466;2022-07-04T08:28:53;24.40;75.10
18974;DHT22;9621;48.690;9.466;2022-07-04T08:31:23;24.40;73.90
18974;DHT22;9621;48.690;9.466;2022-07-04T08:33:50;24.40;73.70
18974;DHT22;9621;48.690;9.466;2022-07-04T08:36:18;24.40;73.70
18974;DHT22;9621;48.690;9.466;2022-07-04T08:38:45;24.30;73.10
18974;DHT22;9621;48.690;9.466;2022-07-04T08:41:15;24.10;73.10
18974;DHT22;9621;48.690;9.466;2022-07-04T08:43:43;24.00;73.20
18974;DHT22;9621;48.690;9.466;2022-07-04T08:46:16;23.90;73.70
18974;DHT22;9621;48.690;9.466;2022-07-04T08:48:50;23.90;73.70
18974;DHT22;9621;48.690;9.466;2022-07-04T08:51:25;23.90;73.40
18974;DHT22;9621;48.690;9.466;2022-07-04T08:53:57;23.90;73.30
18974;DHT22;9621;48.690;9.466;2022-07-04T08:56:27;23.90;73.90
18974;DHT22;9621;48.690;9.466;2022-07-04T08:59:13;23.90;73.50
18974;DHT22;9621;48.690;9.466;2022-07-04T09:01:42;24.00;73.80
18974;DHT22;9621;48.690;9.466;2022-07-04T09:04:10;24.10;74.30
18974;DHT22;9621;48.690;9.466;2022-07-04T09:06:37;24.30;73.80
18974;DHT22;9621;48.690;9.466;2022-07-04T09:09:05;24.40;73.70
18974;DHT22;9621;48.690;9.466;2022-07-04T09:11:35;24.50;73.00
18974;DHT22;9621;48.690;9.466;2022-07-04T09:14:02;24.60;73.60
18974;DHT22;9621;48.690;9.466;2022-07-04T09:16:29;24.80;73.40
18974;DHT22;9621;48.690;9.466;2022-07-04T09:18:56;24.80;71.80
18974;DHT22;9621;48.690;9.466;2022-07-04T09:21:42;24.90;70.90
18974;DHT22;9621;48.690;9.466;2022-07-04T09:24:10;24.90;70.00
18974;DHT22;9621;48.690;9.466;2022-07-04T09:26:44;25.10;70.90
18974;DHT22;9621;48.690;9.466;2022-07-04T09:29:11;25.20;70.70
18974;DHT22;9621;48.690;9.466;2022-07-04T09:31:39;25.50;71.90
18974;DHT22;9621;48.690;9.466;2022-07-04T09:34:07;25.90;71.70
18974;DHT22;9621;48.690;9.466;2022-07-04T09:36:39;26.30;69.20
18974;DHT22;9621;48.690;9.466;2022-07-04T09:39:14;26.60;67.70
18974;DHT22;9621;48.690;9.466;2022-07-04T09:41:57;26.80;67.70
18974;DHT22;9621;48.690;9.466;2022-07-04T09:44:25;27.10;66.00
18974;DHT22;9621;48.690;9.466;2022-07-04T09:46:53;27.20;65.10
18974;DHT22;9621;48.690;9.466;2022-07-04T09:49:22;27.30;64.60
18974;DHT22;9621;48.690;9.466;2022-07-04T09:51:50;27.40;64.80
18974;DHT22;9621;48.690;9.466;2022-07-04T09:54:21;27.50;64.00
18974;DHT22;9621;48.690;9.466;2022-07-04T09:56:51;27.70;63.50
18974;DHT22;9621;48.690;9.466;2022-07-04T09:59:21;27.90;64.00
18974;DHT22;9621;48.690;9.466;2022-07-04T10:01:48;28.20;62.70
18974;DHT22;9621;48.690;9.466;2022-07-04T10:04:15;28.50;62.20
18974;DHT22;9621;48.690;9.466;2022-07-04T10:06:44;28.70;60.90
18974;DHT22;9621;48.690;9.466;2022-07-04T10:09:13;28.80;60.60
18974;DHT22;9621;48.690;9.466;2022-07-04T10:11:42;29.00;60.20
18974;DHT22;9621;48.690;9.466;2022-07-04T10:14:10;29.10;59.00
18974;DHT22;9621;48.690;9.466;2022-07-04T10:16:40;29.10;57.60
18974;DHT22;9621;48.690;9.466;2022-07-04T10:19:08;29.10;57.50
18974;DHT22;9621;48.690;9.466;2022-07-04T10:21:38;29.10;58.40
18974;DHT22;9621;48.690;9.466;2022-07-04T10:24:06;29.10;58.30
18974;DHT22;9621;48.690;9.466;2022-07-04T10:26:33;29.30;58.00
18974;DHT22;9621;48.690;9.466;2022-07-04T10:29:01;29.30;56.80
18974;DHT22;9621;48.690;9.466;2022-07-04T10:31:30;29.30;56.30
18974;DHT22;9621;48.690;9.466;2022-07-04T10:33:59;29.30;54.90
18974;DHT22;9621;48.690;9.466;2022-07-04T10:36:28;29.30;57.30
18974;DHT22;9621;48.690;9.466;2022-07-04T10:38:57;29.50;56.20
18974;DHT22;9621;48.690;9.466;2022-07-04T10:41:26;29.70;55.10
18974;DHT22;9621;48.690;9.466;2022-07-04T10:43:56;29.90;55.90
18974;DHT22;9621;48.690;9.466;2022-07-04T10:46:36;30.10;54.70
18974;DHT22;9621;48.690;9.466;2022-07-04T10:49:07;30.30;53.60
18974;DHT22;9621;48.690;9.466;2022-07-04T10:51:37;30.50;53.10
18974;DHT22;9621;48.690;9.466;2022-07-04T10:54:06;30.70;51.70
18974;DHT22;9621;48.690;9.466;2022-07-04T10:56:39;30.80;53.10
18974;DHT22;9621;48.690;9.466;2022-07-04T10:59:12;30.90;50.40
18974;DHT22;9621;48.690;9.466;2022-07-04T11:01:44;30.90;50.40
18974;DHT22;9621;48.690;9.466;2022-07-04T11:04:12;30.80;50.00
18974;DHT22;9621;48.690;9.466;2022-07-04T11:06:52;30.70;49.40
18974;DHT22;9621;48.690;9.466;2022-07-04T11:09:21;30.50;48.80
18974;DHT22;9621;48.690;9.466;2022-07-04T11:11:50;30.30;49.80
18974;DHT22;9621;48.690;9.466;2022-07-04T11:14:32;30.00;50.20
18974;DHT22;9621;48.690;9.466;2022-07-04T11:16:59;29.90;49.40
18974;DHT22;9621;48.690;9.466;2022-07-04T11:19:28;29.90;50.20
18974;DHT22;9621;48.690;9.466;2022-07-04T11:21:55;30.10;50.90
18974;DHT22;9621;48.690;9.466;2022-07-04T11:24:22;30.40;50.90
18974;DHT22;9621;48.690;9.466;2022-07-04T11:26:49;30.60;50.90
18974;DHT22;9621;48.690;9.466;2022-07-04T11:29:17;30.80;51.20
18974;DHT22;9621;48.690;9.466;2022-07-04T11:31:47;31.10;50.00
18974;DHT22;9621;48.690;9.466;2022-07-04T11:34:15;31.40;50.30
18974;DHT22;9621;48.690;9.466;2022-07-04T11:36:45;31.70;49.30
18974;DHT22;9621;48.690;9.466;2022-07-04T11:39:14;31.80;47.80
18974;DHT22;9621;48.690;9.466;2022-07-04T11:41:46;32.00;47.00
18974;DHT22;9621;48.690;9.466;2022-07-04T11:44:32;32.10;47.80
18974;DHT22;9621;48.690;9.466;2022-07-04T11:47:17;32.30;48.00
18974;DHT22;9621;48.690;9.466;2022-07-04T11:49:47;32.40;48.00
18974;DHT22;9621;48.690;9.466;2022-07-04T11:52:17;32.60;46.30
18974;DHT22;9621;48.690;9.466;2022-07-04T11:54:46;32.70;46.30
18974;DHT22;9621;48.690;9.466;2022-07-04T11:57:16;32.80;45.50
18974;DHT22;9621;48.690;9.466;2022-07-04T11:59:52;32.80;45.30
18974;DHT22;9621;48.690;9.466;2022-07-04T12:02:20;32.70;45.20
18974;DHT22;9621;48.690;9.466;2022-07-04T12:04:47;32.70;45.80
18974;DHT22;9621;48.690;9.466;2022-07-04T12:07:17;32.70;45.80
18974;DHT22;9621;48.690;9.466;2022-07-04T12:09:45;32.50;45.40
18974;DHT22;9621;48.690;9.466;2022-07-04T12:12:14;32.50;46.30
18974;DHT22;9621;48.690;9.466;2022-07-04T12:14:57;32.40;46.80
18974;DHT22;9621;48.690;9.466;2022-07-04T12:17:30;32.50;47.20
18974;DHT22;9621;48.690;9.466;2022-07-04T12:19:59;32.60;46.50
18974;DHT22;9621;48.690;9.466;2022-07-04T12:22:35;32.80;47.60
18974;DHT22;9621;48.690;9.466;2022-07-04T12:25:05;33.00;45.70
18974;DHT22;9621;48.690;9.466;2022-07-04T12:27:34;33.20;45.30
18974;DHT22;9621;48.690;9.466;2022-07-04T12:30:03;33.30;45.00
18974;DHT22;9621;48.690;9.466;2022-07-04T12:32:51;33.50;44.80
18974;DHT22;9621;48.690;9.466;2022-07-04T12:35:39;33.60;44.60
18974;DHT22;9621;48.690;9.466;2022-07-04T12:38:10;33.60;43.60
18974;DHT22;9621;48.690;9.466;2022-07-04T12:40:50;33.50;43.50
18974;DHT22;9621;48.690;9.466;2022-07-04T12:43:17;33.40;43.60
18974;DHT22;9621;48.690;9.466;2022-07-04T12:45:46;33.40;43.90
18974;DHT22;9621;48.690;9.466;2022-07-04T12:48:19;33.40;43.90
18974;DHT22;9621;48.690;9.466;2022-07-04T12:50:46;33.40;43.60
18974;DHT22;9621;48.690;9.466;2022-07-04T12:53:16;33.40;44.00
18974;DHT22;9621;48.690;9.466;2022-07-04T12:55:44;33.30;42.50
18974;DHT22;9621;48.690;9.466;2022-07-04T12:58:12;33.20;43.10
18974;DHT22;9621;48.690;9.466;2022-07-04T13:00:40;33.20;44.40
18974;DHT22;9621;48.690;9.466;2022-07-04T13:03:07;33.30;43.30
18974;DHT22;9621;48.690;9.466;2022-07-04T13:05:36;33.40;42.40
18974;DHT22;9621;48.690;9.466;2022-07-04T13:08:04;33.30;43.10
18974;DHT22;9621;48.690;9.466;2022-07-04T13:10:34;33.30;43.70
18974;DHT22;9621;48.690;9.466;2022-07-04T13:13:01;33.40;42.80
18974;DHT22;9621;48.690;9.466;2022-07-04T13:15:29;33.40;43.50
18974;DHT22;9621;48.690;9.466;2022-07-04T13:17:56;33.40;42.90
18974;DHT22;9621;48.690;9.466;2022-07-04T13:20:23;33.40;43.10
18974;DHT22;9621;48.690;9.466;2022-07-04T13:22:50;33.50;43.10
18974;DHT22;9621;48.690;9.466;2022-07-04T13:25:18;33.50;42.70
18974;DHT22;9621;48.690;9.466;2022-07-04T13:27:46;33.50;41.40
18974;DHT22;9621;48.690;9.466;2022-07-04T13:30:13;33.30;41.30
18974;DHT22;9621;48.690;9.466;2022-07-04T13:32:40;32.90;41.70
18974;DHT22;9621;48.690;9.466;2022-07-04T13:35:08;32.70;41.40
18974;DHT22;9621;48.690;9.466;2022-07-04T13:37:35;32.40;42.00
18974;DHT22;9621;48.690;9.466;2022-07-04T13:40:03;32.30;43.20
18974;DHT22;9621;48.690;9.466;2022-07-04T13:42:30;32.40;42.60
18974;DHT22;9621;48.690;9.466;2022-07-04T13:45:17;32.50;43.30
18974;DHT22;9621;48.690;9.466;2022-07-04T13:47:44;32.70;42.40
18974;DHT22;9621;48.690;9.466;2022-07-04T13:50:11;32.70;41.80
18974;DHT22;9621;48.690;9.466;2022-07-04T13:52:38;32.70;42.00
18974;DHT22;9621;48.690;9.466;2022-07-04T13:55:06;32.60;41.70
18974;DHT22;9621;48.690;9.466;2022-07-04T13:57:33;32.40;41.80
18974;DHT22;9621;48.690;9.466;2022-07-04T14:00:00;32.20;41.30
18974;DHT22;9621;48.690;9.466;2022-07-04T14:02:29;32.00;41.90
18974;DHT22;9621;48.690;9.466;2022-07-04T14:04:56;31.80;42.50
18974;DHT22;9621;48.690;9.466;2022-07-04T14:07:23;31.60;42.20
18974;DHT22;9621;48.690;9.466;2022-07-04T14:09:50;31.70;43.50
18974;DHT22;9621;48.690;9.466;2022-07-04T14:12:18;31.90;43.40
18974;DHT22;9621;48.690;9.466;2022-07-04T14:14:46;32.10;43.20
18974;DHT22;9621;48.690;9.466;2022-07-04T14:17:13;32.30;42.70
18974;DHT22;9621;48.690;9.466;2022-07-04T14:19:41;32.20;41.40
18974;DHT22;9621;48.690;9.466;2022-07-04T14:22:09;32.10;42.00
18974;DHT22;9621;48.690;9.466;2022-07-04T14:24:35;32.00;42.70
18974;DHT22;9621;48.690;9.466;2022-07-04T14:27:03;31.90;43.20
18974;DHT22;9621;48.690;9.466;2022-07-04T14:29:31;31.90;42.00
18974;DHT22;9621;48.690;9.466;2022-07-04T14:31:59;31.80;41.30
18974;DHT22;9621;48.690;9.466;2022-07-04T14:34:26;31.60;41.70
18974;DHT22;9621;48.690;9.466;2022-07-04T14:36:55;31.50;41.70
18974;DHT22;9621;48.690;9.466;2022-07-04T14:39:23;31.40;41.70
18974;DHT22;9621;48.690;9.466;2022-07-04T14:41:50;31.30;42.10
18974;DHT22;9621;48.690;9.466;2022-07-04T14:44:17;31.50;42.50
18974;DHT22;9621;48.690;9.466;2022-07-04T14:46:44;31.50;43.10
18974;DHT22;9621;48.690;9.466;2022-07-04T14:49:11;31.70;42.80
18974;DHT22;9621;48.690;9.466;2022-07-04T14:51:38;31.70;41.80
18974;DHT22;9621;48.690;9.466;2022-07-04T14:54:08;31.60;41.30
18974;DHT22;9621;48.690;9.466;2022-07-04T14:56:35;31.20;40.70
18974;DHT22;9621;48.690;9.466;2022-07-04T14:59:04;31.00;41.80
18974;DHT22;9621;48.690;9.466;2022-07-04T15:01:31;30.90;42.60
18974;DHT22;9621;48.690;9.466;2022-07-04T15:03:59;30.80;42.90
18974;DHT22;9621;48.690;9.466;2022-07-04T15:06:26;30.90;43.10
18974;DHT22;9621;48.690;9.466;2022-07-04T15:08:55;30.90;43.40
18974;DHT22;9621;48.690;9.466;2022-07-04T15:11:23;31.10;42.50
18974;DHT22;9621;48.690;9.466;2022-07-04T15:13:50;31.30;42.70
18974;DHT22;9621;48.690;9.466;2022-07-04T15:16:17;31.30;42.20
18974;DHT22;9621;48.690;9.466;2022-07-04T15:18:45;31.20;41.60
18974;DHT22;9621;48.690;9.466;2022-07-04T15:21:12;31.00;41.20
18974;DHT22;9621;48.690;9.466;2022-07-04T15:24:02;30.80;41.10
18974;DHT22;9621;48.690;9.466;2022-07-04T15:26:43;30.30;41.40
18974;DHT22;9621;48.690;9.466;2022-07-04T15:29:11;29.90;42.20
18974;DHT22;9621;48.690;9.466;2022-07-04T15:31:38;29.60;42.90
18974;DHT22;9621;48.690;9.466;2022-07-04T15:34:05;29.20;43.20
18974;DHT22;9621;48.690;9.466;2022-07-04T15:36:32;28.90;44.50
18974;DHT22;9621;48.690;9.466;2022-07-04T15:39:03;28.70;44.70
18974;DHT22;9621;48.690;9.466;2022-07-04T15:41:31;28.60;45.50
18974;DHT22;9621;48.690;9.466;2022-07-04T15:44:00;28.50;45.60
18974;DHT22;9621;48.690;9.466;2022-07-04T15:46:27;28.40;46.10
18974;DHT22;9621;48.690;9.466;2022-07-04T15:48:54;28.30;46.10
18974;DHT22;9621;48.690;9.466;2022-07-04T15:51:21;28.20;45.90
18974;DHT22;9621;48.690;9.466;2022-07-04T15:53:48;28.10;45.90